createdAt,value
2023-08-14T00:01:27.091Z,3.15
2023-08-14T00:03:54.468Z,3.00
2023-08-14T00:06:20.930Z,3.25
2023-08-14T00:08:47.315Z,2.75
2023-08-14T00:11:13.674Z,3.15
2023-08-14T00:13:54.195Z,3.30
2023-08-14T00:16:21.037Z,3.35
2023-08-14T00:18:47.682Z,3.42
2023-08-14T00:21:14.246Z,3.83
2023-08-14T00:23:40.708Z,3.00
2023-08-14T00:26:07.181Z,3.40
2023-08-14T00:28:33.950Z,3.67
2023-08-14T00:31:00.373Z,3.30
2023-08-14T00:33:26.861Z,2.88
2023-08-14T00:35:53.344Z,3.40
2023-08-14T00:38:19.708Z,3.30
2023-08-14T00:40:46.220Z,3.30
2023-08-14T00:43:14.068Z,3.33
2023-08-14T00:45:46.228Z,3.22
2023-08-14T00:48:15.197Z,3.42
2023-08-14T00:50:43.115Z,3.97
2023-08-14T00:53:11.222Z,3.80
2023-08-14T00:55:37.698Z,3.88
2023-08-14T00:58:04.318Z,3.00
2023-08-14T01:00:31.174Z,3.63
2023-08-14T01:02:57.682Z,3.70
2023-08-14T01:05:24.726Z,3.30
2023-08-14T01:07:51.188Z,3.05
2023-08-14T01:10:17.636Z,3.42
2023-08-14T01:12:57.106Z,2.95
2023-08-14T01:15:39.145Z,3.50
2023-08-14T01:18:06.120Z,3.22
2023-08-14T01:20:35.321Z,3.15
2023-08-14T01:23:15.372Z,4.63
2023-08-14T01:25:42.633Z,4.18
2023-08-14T01:28:09.610Z,3.08
2023-08-14T01:30:36.344Z,3.78
2023-08-14T01:33:02.851Z,3.38
2023-08-14T01:35:39.732Z,3.15
2023-08-14T01:38:17.661Z,3.50
2023-08-14T01:41:19.384Z,4.07
2023-08-14T01:43:49.122Z,2.90
2023-08-14T01:46:16.708Z,3.08
2023-08-14T01:48:46.401Z,3.58
2023-08-14T01:51:14.701Z,3.10
2023-08-14T01:53:41.498Z,3.70
2023-08-14T01:56:07.955Z,3.33
2023-08-14T01:58:34.537Z,3.42
2023-08-14T02:01:01.965Z,2.88
2023-08-14T02:03:28.567Z,2.92
2023-08-14T02:05:55.959Z,3.35
2023-08-14T02:08:22.406Z,3.03
2023-08-14T02:10:48.826Z,3.28
2023-08-14T02:13:15.342Z,3.90
2023-08-14T02:15:45.714Z,3.15
2023-08-14T02:18:12.808Z,3.47
2023-08-14T02:20:49.510Z,3.08
2023-08-14T02:23:16.065Z,2.95
2023-08-14T02:25:42.908Z,3.63
2023-08-14T02:28:09.805Z,3.72
2023-08-14T02:30:38.212Z,4.07
2023-08-14T02:33:06.167Z,3.97
2023-08-14T02:35:32.747Z,4.00
2023-08-14T02:37:59.408Z,3.50
2023-08-14T02:40:26.117Z,3.88
2023-08-14T02:42:52.662Z,3.47
2023-08-14T02:45:19.023Z,3.17
2023-08-14T02:47:45.495Z,3.10
2023-08-14T02:50:11.923Z,3.00
2023-08-14T02:52:38.324Z,4.10
2023-08-14T02:55:05.173Z,3.65
2023-08-14T02:57:31.737Z,3.78
2023-08-14T02:59:58.143Z,4.00
2023-08-14T03:02:24.598Z,3.00
2023-08-14T03:04:51.496Z,3.80
2023-08-14T03:07:17.985Z,3.95
2023-08-14T03:09:44.387Z,3.25
2023-08-14T03:12:10.796Z,3.20
2023-08-14T03:14:37.196Z,3.88
2023-08-14T03:17:03.683Z,3.13
2023-08-14T03:19:30.138Z,2.75
2023-08-14T03:21:56.568Z,3.17
2023-08-14T03:24:22.921Z,2.85
2023-08-14T03:26:49.360Z,2.97
2023-08-14T03:29:17.161Z,3.08
2023-08-14T03:31:43.594Z,3.58
2023-08-14T03:34:10.461Z,3.00
2023-08-14T03:36:37.084Z,2.95
2023-08-14T03:39:03.992Z,2.88
2023-08-14T03:41:30.436Z,3.10
2023-08-14T03:44:00.008Z,3.20
2023-08-14T03:46:26.812Z,2.75
2023-08-14T03:48:53.286Z,2.97
2023-08-14T03:51:19.709Z,3.40
2023-08-14T03:53:46.082Z,3.70
2023-08-14T03:56:12.921Z,4.03
2023-08-14T03:58:39.312Z,4.00
2023-08-14T04:01:05.713Z,3.22
2023-08-14T04:03:32.268Z,3.53
2023-08-14T04:05:58.835Z,3.97
2023-08-14T04:08:25.546Z,3.67
2023-08-14T04:10:58.213Z,3.22
2023-08-14T04:13:25.654Z,4.28
2023-08-14T04:15:52.802Z,4.90
2023-08-14T04:18:19.202Z,3.67
2023-08-14T04:20:45.703Z,4.20
2023-08-14T04:23:12.256Z,4.47
2023-08-14T04:25:38.860Z,3.75
2023-08-14T04:28:07.097Z,4.07
2023-08-14T04:30:33.557Z,4.78
2023-08-14T04:33:00.126Z,4.20
2023-08-14T04:35:28.496Z,4.13
2023-08-14T04:37:55.612Z,3.95
2023-08-14T04:40:22.252Z,3.83
2023-08-14T04:42:48.633Z,4.03
2023-08-14T04:45:15.462Z,4.60
2023-08-14T04:47:41.949Z,4.13
2023-08-14T04:50:10.284Z,4.47
2023-08-14T04:52:36.769Z,4.10
2023-08-14T04:55:05.031Z,5.47
2023-08-14T04:57:34.599Z,4.50
2023-08-14T05:00:05.344Z,3.92
2023-08-14T05:02:33.384Z,4.43
2023-08-14T05:05:00.990Z,4.93
2023-08-14T05:07:28.018Z,4.57
2023-08-14T05:09:54.614Z,4.13
2023-08-14T05:12:21.293Z,4.75
2023-08-14T05:14:48.302Z,4.18
2023-08-14T05:17:14.812Z,4.20
2023-08-14T05:19:41.394Z,5.32
2023-08-14T05:22:07.811Z,4.30
2023-08-14T05:24:34.241Z,4.10
2023-08-14T05:27:00.644Z,3.92
2023-08-14T05:29:27.052Z,4.40
2023-08-14T05:31:53.500Z,4.43
2023-08-14T05:34:28.941Z,4.18
2023-08-14T05:36:55.781Z,4.47
2023-08-14T05:39:22.229Z,5.60
2023-08-14T05:41:50.463Z,4.82
2023-08-14T05:44:17.032Z,4.60
2023-08-14T05:46:45.927Z,4.15
2023-08-14T05:49:13.882Z,4.57
2023-08-14T05:51:40.307Z,4.57
2023-08-14T05:54:06.745Z,4.68
2023-08-14T05:56:33.209Z,4.47
2023-08-14T05:58:59.605Z,4.80
2023-08-14T06:01:26.028Z,4.55
2023-08-14T06:03:52.538Z,5.03
2023-08-14T06:06:18.999Z,5.22
2023-08-14T06:08:45.481Z,4.90
2023-08-14T06:11:11.861Z,4.68
2023-08-14T06:13:38.302Z,4.38
2023-08-14T06:16:04.900Z,4.75
2023-08-14T06:18:31.322Z,4.72
2023-08-14T06:20:57.734Z,4.78
2023-08-14T06:23:24.158Z,3.60
2023-08-14T06:25:50.515Z,4.63
2023-08-14T06:28:16.969Z,4.90
2023-08-14T06:30:43.356Z,5.22
2023-08-14T06:33:09.930Z,4.05
2023-08-14T06:35:36.560Z,5.15
2023-08-14T06:38:03.585Z,4.13
2023-08-14T06:40:30.036Z,4.50
2023-08-14T06:42:56.557Z,4.55
2023-08-14T06:45:23.023Z,4.05
2023-08-14T06:47:49.908Z,4.30
2023-08-14T06:50:16.458Z,4.10
2023-08-14T06:52:42.886Z,4.07
2023-08-14T06:55:09.526Z,3.50
2023-08-14T06:57:35.913Z,3.25
2023-08-14T07:00:13.106Z,4.38
2023-08-14T07:02:40.658Z,4.40
2023-08-14T07:05:10.950Z,4.18
2023-08-14T07:07:37.945Z,4.22
2023-08-14T07:10:04.633Z,3.80
2023-08-14T07:12:31.148Z,3.83
2023-08-14T07:14:57.643Z,4.40
2023-08-14T07:17:24.129Z,3.25
2023-08-14T07:19:50.549Z,3.83
2023-08-14T07:22:17.201Z,3.72
2023-08-14T07:24:44.867Z,3.60
2023-08-14T07:27:11.279Z,3.83
2023-08-14T07:29:37.677Z,4.05
2023-08-14T07:32:04.321Z,4.45
2023-08-14T07:34:30.679Z,3.63
2023-08-14T07:36:57.087Z,3.30
2023-08-14T07:39:24.294Z,3.80
2023-08-14T07:41:50.720Z,4.13
2023-08-14T07:44:17.115Z,4.13
2023-08-14T07:46:43.482Z,3.50
2023-08-14T07:49:09.870Z,3.72
2023-08-14T07:51:36.254Z,4.28
2023-08-14T07:54:03.056Z,3.83
2023-08-14T07:56:29.446Z,4.50
2023-08-14T07:58:55.845Z,3.03
2023-08-14T08:01:22.349Z,3.85
2023-08-14T08:03:48.735Z,3.08
2023-08-14T08:06:15.140Z,4.07
2023-08-14T08:08:43.773Z,4.43
2023-08-14T08:11:12.242Z,4.35
2023-08-14T08:13:38.694Z,3.83
2023-08-14T08:16:05.307Z,3.35
2023-08-14T08:18:31.716Z,3.42
2023-08-14T08:20:58.136Z,3.15
2023-08-14T08:23:24.553Z,3.60
2023-08-14T08:25:51.409Z,3.03
2023-08-14T08:28:17.828Z,3.40
2023-08-14T08:30:44.323Z,3.20
2023-08-14T08:33:10.725Z,2.70
2023-08-14T08:35:37.211Z,2.97
2023-08-14T08:38:03.891Z,3.60
2023-08-14T08:40:31.923Z,3.80
2023-08-14T08:43:01.037Z,3.35
2023-08-14T08:45:32.885Z,3.00
2023-08-14T08:48:02.155Z,3.13
2023-08-14T08:50:32.435Z,3.80
2023-08-14T08:52:59.336Z,3.28
2023-08-14T08:55:26.027Z,3.10
2023-08-14T08:57:55.220Z,3.05
2023-08-14T09:00:25.828Z,3.08
2023-08-14T09:05:19.413Z,3.45
2023-08-14T09:07:47.238Z,3.08
2023-08-14T09:10:15.636Z,3.28
2023-08-14T09:12:42.409Z,3.00
2023-08-14T09:15:10.429Z,3.25
2023-08-14T09:17:36.825Z,3.75
2023-08-14T09:20:12.030Z,2.78
2023-08-14T09:22:45.736Z,3.17
2023-08-14T09:25:12.212Z,3.13
2023-08-14T09:27:38.704Z,3.05
2023-08-14T09:30:07.474Z,3.67
2023-08-14T09:32:34.174Z,3.45
2023-08-14T09:35:02.132Z,3.05
2023-08-14T09:37:29.049Z,3.50
2023-08-14T09:40:16.295Z,3.65
2023-08-14T09:42:52.251Z,3.00
2023-08-14T09:45:24.626Z,4.18
2023-08-14T09:47:52.382Z,4.38
2023-08-14T09:50:21.010Z,4.50
2023-08-14T09:52:47.614Z,3.70
2023-08-14T09:55:15.338Z,3.47
2023-08-14T09:57:42.543Z,3.80
2023-08-14T10:00:09.496Z,3.08
2023-08-14T10:02:38.855Z,2.88
2023-08-14T10:05:10.243Z,3.67
2023-08-14T10:07:39.237Z,4.00
2023-08-14T10:10:08.476Z,3.60
2023-08-14T10:12:44.067Z,2.97
2023-08-14T10:15:14.261Z,3.45
2023-08-14T10:17:46.452Z,3.80
2023-08-14T10:20:18.486Z,2.75
2023-08-14T10:22:47.332Z,3.45
2023-08-14T10:25:15.048Z,3.10
2023-08-14T10:27:41.574Z,3.83
2023-08-14T10:30:08.839Z,3.05
2023-08-14T10:32:37.478Z,3.25
2023-08-14T10:35:04.932Z,3.35
2023-08-14T10:38:00.030Z,4.20
2023-08-14T10:40:35.463Z,2.85
2023-08-14T10:43:02.398Z,3.17
2023-08-14T10:45:29.835Z,2.75
2023-08-14T10:48:01.607Z,3.13
2023-08-14T10:50:30.174Z,3.50
2023-08-14T10:52:57.809Z,3.08
2023-08-14T10:55:24.265Z,3.20
2023-08-14T10:57:50.894Z,3.60
2023-08-14T11:00:25.266Z,3.83
2023-08-14T11:03:12.821Z,3.65
2023-08-14T11:05:40.534Z,3.72
2023-08-14T11:08:12.753Z,3.47
2023-08-14T11:10:40.896Z,4.00
2023-08-14T11:13:07.856Z,3.60
2023-08-14T11:15:35.841Z,3.55
2023-08-14T11:18:03.896Z,3.58
2023-08-14T11:20:31.004Z,3.35
2023-08-14T11:22:57.447Z,3.13
2023-08-14T11:25:25.051Z,3.60
2023-08-14T11:27:53.493Z,3.53
2023-08-14T11:30:26.331Z,3.65
2023-08-14T11:32:54.994Z,4.18
2023-08-14T11:37:52.819Z,3.83
2023-08-14T11:40:19.386Z,3.92
2023-08-14T11:42:45.864Z,3.60
2023-08-14T11:45:12.475Z,3.53
2023-08-14T11:47:48.438Z,3.83
2023-08-14T11:50:16.665Z,3.33
2023-08-14T11:52:43.628Z,3.60
2023-08-14T11:55:10.931Z,3.30
2023-08-14T11:57:38.828Z,3.08
2023-08-14T12:00:21.061Z,3.53
2023-08-14T12:02:52.865Z,3.70
2023-08-14T12:05:20.809Z,3.70
2023-08-14T12:07:47.260Z,3.13
2023-08-14T12:10:17.134Z,3.45
2023-08-14T12:12:51.722Z,3.53
2023-08-14T12:15:24.351Z,3.72
2023-08-14T12:17:54.660Z,3.83
2023-08-14T12:20:22.327Z,3.38
2023-08-14T12:22:55.538Z,3.22
2023-08-14T12:25:29.251Z,3.70
2023-08-14T12:27:55.698Z,4.07
2023-08-14T12:30:22.079Z,3.15
2023-08-14T12:32:48.646Z,3.78
2023-08-14T12:35:15.162Z,3.83
2023-08-14T12:37:41.599Z,3.88
2023-08-14T12:40:09.696Z,2.70
2023-08-14T12:42:37.372Z,3.65
2023-08-14T12:45:05.257Z,3.25
2023-08-14T12:47:32.073Z,3.70
2023-08-14T12:49:58.607Z,3.97
2023-08-14T12:52:25.901Z,3.67
2023-08-14T12:57:23.368Z,3.38
2023-08-14T12:59:51.025Z,3.10
2023-08-14T13:02:24.262Z,3.80
2023-08-14T13:04:53.709Z,3.55
2023-08-14T13:09:48.795Z,3.83
2023-08-14T13:12:15.244Z,3.40
2023-08-14T13:14:41.601Z,3.20
2023-08-14T13:17:08.024Z,3.17
2023-08-14T13:19:34.462Z,3.35
2023-08-14T13:22:00.904Z,3.97
2023-08-14T13:24:27.282Z,3.53
2023-08-14T13:26:53.653Z,4.00
2023-08-14T13:29:20.056Z,3.35
2023-08-14T13:31:47.893Z,3.28
2023-08-14T13:34:14.301Z,3.25
2023-08-14T13:36:41.147Z,3.40
2023-08-14T13:39:08.289Z,2.80
2023-08-14T13:41:34.790Z,3.58
2023-08-14T13:44:01.289Z,3.15
2023-08-14T13:46:27.718Z,3.70
2023-08-14T13:48:54.127Z,3.50
2023-08-14T13:51:20.756Z,3.53
2023-08-14T13:53:48.589Z,3.45
2023-08-14T13:56:15.102Z,3.35
2023-08-14T13:58:41.526Z,2.83
2023-08-14T14:01:08.384Z,3.17
2023-08-14T14:03:34.737Z,3.40
2023-08-14T14:06:01.125Z,3.25
2023-08-14T14:08:27.599Z,3.17
2023-08-14T14:10:53.974Z,3.17
2023-08-14T14:13:20.485Z,3.42
2023-08-14T14:15:47.022Z,3.22
2023-08-14T14:18:13.502Z,3.05
2023-08-14T14:20:40.048Z,3.40
2023-08-14T14:23:06.477Z,3.47
2023-08-14T14:25:32.877Z,3.28
2023-08-14T14:27:59.541Z,2.90
2023-08-14T14:30:25.909Z,3.95
2023-08-14T14:32:52.360Z,3.30
2023-08-14T14:35:19.198Z,3.53
2023-08-14T14:37:46.010Z,3.70
2023-08-14T14:40:12.496Z,3.13
2023-08-14T14:42:38.839Z,3.10
2023-08-14T14:45:06.532Z,3.13
2023-08-14T14:47:33.877Z,2.90
2023-08-14T14:50:00.343Z,3.40
2023-08-14T14:52:26.732Z,3.58
2023-08-14T14:54:53.312Z,3.08
2023-08-14T14:57:20.164Z,3.45
2023-08-14T14:59:48.052Z,2.88
2023-08-14T15:02:27.435Z,3.47
2023-08-14T15:04:54.463Z,3.50
2023-08-14T15:07:21.277Z,3.50
2023-08-14T15:09:47.915Z,4.82
2023-08-14T15:12:14.290Z,4.35
2023-08-14T15:14:40.702Z,3.15
2023-08-14T15:17:07.096Z,3.28
2023-08-14T15:19:33.442Z,3.97
2023-08-14T15:21:59.809Z,3.03
2023-08-14T15:24:26.183Z,3.40
2023-08-14T15:26:52.984Z,3.50
2023-08-14T15:29:19.521Z,3.30
2023-08-14T15:31:45.939Z,3.17
2023-08-14T15:34:12.341Z,3.10
2023-08-14T15:36:38.782Z,3.20
2023-08-14T15:39:05.197Z,3.05
2023-08-14T15:41:31.559Z,3.25
2023-08-14T15:43:58.123Z,3.13
2023-08-14T15:46:24.553Z,3.05
2023-08-14T15:48:53.807Z,2.75
2023-08-14T15:51:20.625Z,3.13
2023-08-14T15:53:47.089Z,3.60
2023-08-14T15:56:13.646Z,3.42
2023-08-14T15:58:40.027Z,2.90
2023-08-14T16:01:06.432Z,3.75
2023-08-14T16:03:32.911Z,2.72
2023-08-14T16:05:59.380Z,3.13
2023-08-14T16:08:25.760Z,3.75
2023-08-14T16:10:52.200Z,3.67
2023-08-14T16:13:18.573Z,3.22
2023-08-14T16:15:44.977Z,3.80
2023-08-14T16:18:11.503Z,3.65
2023-08-14T16:20:37.858Z,3.13
2023-08-14T16:23:04.554Z,3.58
2023-08-14T16:25:31.033Z,4.05
2023-08-14T16:27:57.438Z,3.55
2023-08-14T16:30:23.940Z,3.70
2023-08-14T16:32:50.367Z,3.50
2023-08-14T16:35:17.285Z,3.42
2023-08-14T16:37:43.833Z,4.10
2023-08-14T16:40:11.050Z,3.53
2023-08-14T16:42:37.626Z,4.22
2023-08-14T16:45:04.412Z,4.03
2023-08-14T16:47:30.783Z,4.20
2023-08-14T16:49:57.173Z,4.53
2023-08-14T16:52:23.577Z,4.40
2023-08-14T16:54:51.928Z,3.72
2023-08-14T16:59:44.682Z,3.83
2023-08-14T17:02:11.092Z,4.20
2023-08-14T17:04:37.557Z,3.65
2023-08-14T17:07:04.051Z,4.25
2023-08-14T17:09:30.713Z,4.10
2023-08-14T17:11:57.175Z,3.88
2023-08-14T17:14:23.762Z,4.20
2023-08-14T17:16:50.236Z,3.58
2023-08-14T17:19:18.531Z,3.80
2023-08-14T17:21:47.954Z,3.75
2023-08-14T17:24:15.922Z,3.78
2023-08-14T17:26:43.015Z,4.00
2023-08-14T17:29:09.705Z,4.00
2023-08-14T17:31:36.383Z,4.22
2023-08-14T17:34:02.891Z,5.10
2023-08-14T17:36:29.353Z,5.00
2023-08-14T17:38:55.768Z,4.47
2023-08-14T17:41:22.204Z,4.07
2023-08-14T17:43:48.592Z,4.40
2023-08-14T17:46:15.106Z,4.03
2023-08-14T17:48:41.496Z,3.88
2023-08-14T17:51:08.066Z,3.65
2023-08-14T17:53:35.254Z,3.50
2023-08-14T17:56:01.744Z,4.05
2023-08-14T17:58:28.184Z,4.75
2023-08-14T18:00:54.652Z,4.65
2023-08-14T18:03:21.188Z,3.58
2023-08-14T18:05:54.276Z,3.58
2023-08-14T18:08:21.282Z,3.88
2023-08-14T18:10:48.081Z,3.40
2023-08-14T18:13:14.785Z,4.50
2023-08-14T18:15:41.333Z,4.45
2023-08-14T18:18:07.815Z,4.97
2023-08-14T18:20:34.395Z,4.03
2023-08-14T18:23:01.296Z,4.15
2023-08-14T18:25:27.751Z,4.13
2023-08-14T18:27:54.161Z,4.05
2023-08-14T18:30:20.598Z,4.15
2023-08-14T18:32:47.008Z,4.22
2023-08-14T18:35:13.393Z,4.18
2023-08-14T18:37:39.887Z,4.45
2023-08-14T18:40:07.734Z,4.57
2023-08-14T18:42:35.340Z,4.68
2023-08-14T18:45:01.795Z,5.78
2023-08-14T18:47:28.227Z,4.30
2023-08-14T18:49:54.897Z,4.28
2023-08-14T18:52:21.775Z,4.82
2023-08-14T18:54:48.247Z,4.32
2023-08-14T18:57:14.614Z,4.30
2023-08-14T18:59:47.926Z,4.22
2023-08-14T19:02:14.861Z,4.53
2023-08-14T19:04:43.485Z,5.32
2023-08-14T19:07:10.832Z,5.50
2023-08-14T19:09:37.332Z,5.22
2023-08-14T19:12:07.174Z,5.72
2023-08-14T19:14:36.602Z,4.72
2023-08-14T19:17:04.128Z,4.90
2023-08-14T19:19:30.506Z,4.95
2023-08-14T19:21:56.921Z,4.70
2023-08-14T19:24:23.401Z,4.85
2023-08-14T19:26:50.178Z,4.55
2023-08-14T19:29:16.580Z,5.38
2023-08-14T19:31:42.904Z,5.60
2023-08-14T19:34:09.347Z,5.72
2023-08-14T19:36:35.740Z,5.38
2023-08-14T19:39:02.302Z,4.93
2023-08-14T19:41:28.750Z,5.85
2023-08-14T19:43:56.032Z,5.80
2023-08-14T19:46:22.612Z,5.50
2023-08-14T19:48:49.052Z,5.75
2023-08-14T19:51:15.444Z,5.95
2023-08-14T19:53:41.806Z,6.05
2023-08-14T19:56:08.935Z,6.57
2023-08-14T19:58:35.298Z,6.18
2023-08-14T20:01:02.375Z,5.50
2023-08-14T20:03:31.143Z,5.00
2023-08-14T20:05:57.675Z,5.75
2023-08-14T20:08:24.803Z,5.07
2023-08-14T20:10:51.485Z,5.05
2023-08-14T20:13:17.970Z,5.15
2023-08-14T20:15:45.777Z,4.88
2023-08-14T20:18:13.297Z,5.65
2023-08-14T20:20:41.271Z,5.53
2023-08-14T20:23:08.670Z,5.18
2023-08-14T20:25:35.804Z,5.15
2023-08-14T20:28:03.272Z,4.75
2023-08-14T20:30:30.359Z,5.05
2023-08-14T20:32:58.136Z,5.35
2023-08-14T20:35:24.637Z,5.65
2023-08-14T20:37:51.003Z,5.28
2023-08-14T20:40:17.678Z,4.43
2023-08-14T20:42:44.074Z,4.38
2023-08-14T20:45:10.677Z,4.70
2023-08-14T20:47:37.185Z,5.30
2023-08-14T20:50:03.639Z,5.30
2023-08-14T20:52:30.018Z,4.90
2023-08-14T20:54:56.520Z,5.75
2023-08-14T20:57:23.445Z,5.32
2023-08-14T20:59:49.804Z,5.25
2023-08-14T21:02:16.179Z,6.45
2023-08-14T21:04:42.648Z,5.63
2023-08-14T21:07:09.049Z,5.47
2023-08-14T21:09:35.453Z,5.18
2023-08-14T21:12:01.882Z,5.18
2023-08-14T21:14:28.341Z,5.10
2023-08-14T21:16:54.716Z,5.45
2023-08-14T21:19:21.068Z,4.93
2023-08-14T21:21:47.449Z,5.28
2023-08-14T21:24:13.942Z,5.18
2023-08-14T21:26:41.247Z,5.57
2023-08-14T21:29:07.603Z,4.90
2023-08-14T21:31:34.344Z,5.38
2023-08-14T21:34:01.006Z,5.13
2023-08-14T21:36:27.446Z,4.70
2023-08-14T21:38:53.877Z,4.55
2023-08-14T21:41:20.323Z,4.70
2023-08-14T21:43:46.749Z,5.13
2023-08-14T21:46:13.157Z,4.68
2023-08-14T21:48:39.537Z,5.60
2023-08-14T21:51:06.143Z,6.13
2023-08-14T21:53:32.872Z,5.70
2023-08-14T21:55:59.241Z,5.03
2023-08-14T21:58:25.639Z,5.28
2023-08-14T22:00:52.215Z,4.80
2023-08-14T22:03:18.647Z,4.75
2023-08-14T22:05:45.005Z,4.82
2023-08-14T22:08:11.396Z,5.18
2023-08-14T22:10:37.767Z,4.70
2023-08-14T22:13:04.339Z,5.30
2023-08-14T22:18:03.120Z,4.60
2023-08-14T22:20:29.549Z,6.07
2023-08-14T22:22:55.970Z,5.35
2023-08-14T22:25:22.911Z,5.63
2023-08-14T22:27:49.443Z,4.50
2023-08-14T22:30:15.882Z,4.75
2023-08-14T22:32:42.331Z,5.40
2023-08-14T22:35:08.917Z,4.90
2023-08-14T22:37:35.343Z,4.78
2023-08-14T22:40:01.799Z,5.40
2023-08-14T22:42:28.207Z,5.50
2023-08-14T22:44:54.600Z,5.35
2023-08-14T22:47:21.046Z,5.25
2023-08-14T22:49:47.574Z,6.47
2023-08-14T22:52:13.982Z,5.55
2023-08-14T22:54:40.344Z,5.40
2023-08-14T22:57:06.714Z,5.90
2023-08-14T22:59:33.092Z,4.97
2023-08-14T23:01:59.456Z,5.35
2023-08-14T23:04:25.902Z,5.13
2023-08-14T23:06:52.941Z,6.20
2023-08-14T23:09:19.388Z,5.65
2023-08-14T23:11:45.939Z,4.80
2023-08-14T23:14:15.547Z,5.15
2023-08-14T23:16:41.976Z,5.05
2023-08-14T23:19:08.652Z,4.82
2023-08-14T23:21:35.079Z,5.72
2023-08-14T23:24:01.469Z,5.70
2023-08-14T23:26:27.909Z,5.47
2023-08-14T23:28:54.419Z,5.43
2023-08-14T23:31:21.590Z,5.43
2023-08-14T23:33:48.034Z,5.60
2023-08-14T23:36:14.374Z,5.30
2023-08-14T23:38:40.770Z,6.78
2023-08-14T23:41:07.165Z,6.32
2023-08-14T23:43:33.566Z,5.38
2023-08-14T23:46:00.803Z,5.78
2023-08-14T23:48:27.286Z,5.53
2023-08-14T23:50:53.641Z,5.65
2023-08-14T23:53:20.005Z,4.82
2023-08-14T23:55:46.722Z,5.28
2023-08-14T23:58:13.397Z,5.03
